Estacion de Cartama, Spain
Current Conditions -  °F | °C
As of 9:30 AM on Saturday 29 Nov 2014 (Local Time) from LEMG Reporting Station
Broken Clouds Broken Clouds  
Wind Chill: 54°   Ceiling: 8000
Heat Index: 54°   Visibility: 6mi
Dew Point: 50°   Wind: 8mph
Humidity: 88%   Direction: 310°NW
Pressure: 29.29"   Gusts: NA
Location:  36.73°N, 4.62°W
Report Text: LEMG 290830Z 31007KT 9999 FEW010 SCT050 BKN080 12/10 Q0992 TEMPO 4000 SHRA FEW020TCU
Loading
Personal Weather Stations






























Interactive Weather Map New forecast layout! Learn more

10-Day Weather Forecast

Advertisements
Track Severe Weather on mobile